Time;durP1;ratioP1;P1;durP2;ratioP2;P2;SDS_P1;SDS_P2;PMS_P1;PMS_P2;Temp;Humidity;BMP_temperature;BMP_pressure;BME280_temperature;BME280_humidity;BME280_pressure;Samples;Min_cycle;Max_cycle;Signal;HPM_P1;HPM_P2
2024/02/04 00:02:38;;;;;;;5.03;1.83;;;7.00;99.90;;;;;;5052898;28;20192;-83
2024/02/04 00:05:25;;;;;;;7.83;2.30;;;7.00;99.90;;;;;;5052261;28;20239;-83
2024/02/04 00:08:16;;;;;;;5.43;1.90;;;6.90;99.90;;;;;;5052872;28;20279;-83
2024/02/04 00:11:04;;;;;;;7.33;1.97;;;6.90;99.90;;;;;;5051435;28;20200;-82
2024/02/04 00:13:52;;;;;;;5.30;1.67;;;6.90;99.90;;;;;;5038791;28;20278;-83
2024/02/04 00:16:39;;;;;;;9.10;2.37;;;6.90;99.90;;;;;;5038435;28;20253;-82
2024/02/04 00:19:26;;;;;;;5.20;1.87;;;6.90;99.90;;;;;;5037120;28;20219;-83
2024/02/04 00:22:17;;;;;;;8.57;2.33;;;6.90;99.90;;;;;;5052485;28;20276;-82
2024/02/04 00:25:04;;;;;;;6.87;2.10;;;6.80;99.90;;;;;;5051682;28;20285;-82
2024/02/04 00:27:52;;;;;;;6.77;2.10;;;6.80;99.90;;;;;;5039133;28;20221;-82
2024/02/04 00:30:40;;;;;;;7.80;2.17;;;6.80;99.90;;;;;;5052594;28;20689;-82
2024/02/04 00:33:27;;;;;;;7.87;1.80;;;6.70;99.90;;;;;;5037191;28;20197;-83
2024/02/04 00:36:14;;;;;;;8.47;2.17;;;6.60;99.90;;;;;;5052302;28;20193;-83
2024/02/04 00:39:02;;;;;;;7.93;2.00;;;6.60;99.90;;;;;;5052276;28;20229;-83
2024/02/04 00:41:49;;;;;;;7.93;2.00;;;6.50;99.90;;;;;;5052664;28;20213;-82
2024/02/04 00:44:36;;;;;;;6.90;2.20;;;6.60;99.90;;;;;;5037511;28;20210;-82
2024/02/04 00:47:25;;;;;;;8.57;2.17;;;6.50;99.90;;;;;;5036932;28;20196;-83
2024/02/04 00:50:12;;;;;;;5.60;2.37;;;6.60;99.90;;;;;;5037253;28;20197;-83
2024/02/04 00:53:00;;;;;;;7.03;2.60;;;6.50;99.90;;;;;;5037507;28;20202;-83
2024/02/04 00:55:47;;;;;;;9.97;2.77;;;6.50;99.90;;;;;;5050392;28;20618;-82
2024/02/04 00:58:35;;;;;;;10.57;2.60;;;6.50;99.90;;;;;;5037216;28;20251;-81
2024/02/04 01:01:23;;;;;;;7.93;2.47;;;6.50;99.90;;;;;;5052509;28;20821;-83
2024/02/04 01:04:10;;;;;;;7.37;2.60;;;6.40;99.90;;;;;;5052443;28;20198;-83
2024/02/04 01:06:57;;;;;;;8.83;2.33;;;6.40;99.90;;;;;;5036762;28;20227;-82
2024/02/04 01:09:48;;;;;;;10.90;2.70;;;6.40;99.90;;;;;;5051924;28;20198;-83
2024/02/04 01:12:35;;;;;;;8.40;2.80;;;6.30;99.90;;;;;;5051537;28;20227;-83
2024/02/04 01:15:22;;;;;;;7.70;2.73;;;6.30;99.90;;;;;;5052378;28;20223;-83
2024/02/04 01:18:10;;;;;;;9.90;3.00;;;6.30;99.90;;;;;;5052474;28;20195;-84
2024/02/04 01:20:58;;;;;;;6.07;2.60;;;6.30;99.90;;;;;;5031786;28;20659;-83
2024/02/04 01:23:45;;;;;;;9.17;2.73;;;6.30;99.90;;;;;;5039870;28;20200;-83
2024/02/04 01:26:32;;;;;;;8.27;2.93;;;6.30;99.90;;;;;;5053739;28;20222;-82
2024/02/04 01:29:20;;;;;;;8.90;2.70;;;6.30;99.90;;;;;;5053667;28;20195;-82
2024/02/04 01:32:07;;;;;;;8.70;2.80;;;6.40;99.90;;;;;;5053533;28;20279;-83
2024/02/04 01:34:54;;;;;;;6.43;2.50;;;6.40;99.90;;;;;;5037777;28;20203;-83
2024/02/04 01:37:43;;;;;;;9.03;2.80;;;6.40;99.90;;;;;;5053381;28;20223;-82
2024/02/04 01:40:30;;;;;;;9.53;3.10;;;6.40;99.90;;;;;;5052787;28;20612;-83
2024/02/04 01:43:18;;;;;;;10.77;2.63;;;6.30;99.90;;;;;;5051956;28;20222;-83
2024/02/04 01:46:06;;;;;;;11.53;3.23;;;6.30;99.90;;;;;;5037676;28;20198;-83
2024/02/04 01:48:55;;;;;;;9.30;3.00;;;6.40;99.90;;;;;;5051825;28;20230;-83
2024/02/04 01:51:43;;;;;;;7.07;2.60;;;6.50;99.90;;;;;;5037739;28;20284;-83
2024/02/04 01:54:32;;;;;;;6.67;2.60;;;6.50;99.90;;;;;;5051738;28;20224;-83
2024/02/04 01:57:20;;;;;;;7.23;2.57;;;6.40;99.90;;;;;;5041006;28;20234;-83
2024/02/04 02:00:09;;;;;;;8.03;2.60;;;6.40;99.90;;;;;;5056043;28;20222;-83
2024/02/04 02:02:57;;;;;;;11.30;3.07;;;6.30;99.90;;;;;;5039465;28;20651;-83
2024/02/04 02:05:46;;;;;;;10.77;2.83;;;6.30;99.90;;;;;;5039258;28;20349;-83
2024/02/04 02:08:34;;;;;;;8.23;2.90;;;6.30;99.90;;;;;;5056273;28;20189;-83
2024/02/04 02:11:32;;;;;;;8.37;2.70;;;6.30;99.90;;;;;;5053808;28;20226;-83
2024/02/04 02:14:26;;;;;;;5.53;2.67;;;6.30;99.90;;;;;;5053148;28;20189;-83
2024/02/04 02:17:19;;;;;;;7.90;2.50;;;6.30;99.90;;;;;;5056343;28;20253;-84
2024/02/04 02:20:21;;;;;;;8.20;2.60;;;6.30;99.90;;;;;;5040408;28;20686;-83
2024/02/04 02:23:29;;;;;;;7.47;2.60;;;6.40;99.90;;;;;;5052826;28;20670;-82
2024/02/04 02:26:17;;;;;;;7.93;2.60;;;6.40;99.90;;;;;;5054683;28;20197;-83
2024/02/04 02:29:08;;;;;;;6.60;2.53;;;6.40;99.90;;;;;;5053482;28;20218;-83
2024/02/04 02:31:56;;;;;;;11.53;2.70;;;6.40;99.90;;;;;;5040511;28;20196;-83
2024/02/04 02:34:43;;;;;;;6.63;2.43;;;6.40;99.90;;;;;;5055330;28;20239;-83
2024/02/04 02:37:41;;;;;;;7.63;2.30;;;6.40;99.90;;;;;;5053524;28;20193;-83
2024/02/04 02:40:38;;;;;;;7.17;2.23;;;6.40;99.90;;;;;;5054243;28;20300;-83
2024/02/04 02:43:27;;;;;;;9.10;2.63;;;6.40;99.90;;;;;;5054162;28;20297;-83
2024/02/04 02:46:14;;;;;;;7.53;2.17;;;6.50;99.90;;;;;;5053940;28;20225;-83
2024/02/04 02:49:02;;;;;;;8.77;2.27;;;6.50;99.90;;;;;;5040220;28;20205;-82
2024/02/04 02:51:50;;;;;;;6.53;2.10;;;6.50;99.90;;;;;;5046572;28;20288;-82
2024/02/04 02:54:37;;;;;;;7.27;2.10;;;6.50;99.90;;;;;;5040004;28;20209;-83
2024/02/04 02:57:25;;;;;;;6.87;2.50;;;6.50;99.90;;;;;;5054498;28;20217;-82
2024/02/04 03:00:13;;;;;;;9.17;2.50;;;6.50;99.90;;;;;;5040343;28;20227;-82
2024/02/04 03:03:00;;;;;;;7.27;2.60;;;6.50;99.90;;;;;;5054627;28;20655;-83
2024/02/04 03:05:47;;;;;;;11.73;2.50;;;6.60;99.90;;;;;;5052063;28;20227;-83
2024/02/04 03:08:35;;;;;;;8.83;2.73;;;6.60;99.90;;;;;;5054072;28;20797;-83
2024/02/04 03:11:22;;;;;;;9.20;2.43;;;6.50;99.90;;;;;;5053718;28;20230;-83
2024/02/04 03:14:10;;;;;;;10.17;2.50;;;6.60;99.90;;;;;;5054710;28;20198;-83
2024/02/04 03:16:57;;;;;;;6.97;2.20;;;6.60;99.90;;;;;;5053752;28;20191;-83
2024/02/04 03:19:47;;;;;;;9.37;2.20;;;6.60;99.90;;;;;;5038140;28;20297;-82
2024/02/04 03:22:34;;;;;;;7.23;2.30;;;6.60;99.90;;;;;;5039018;28;20198;-83
2024/02/04 03:25:23;;;;;;;6.23;2.10;;;6.70;99.90;;;;;;5054208;28;20219;-83
2024/02/04 03:28:10;;;;;;;11.23;2.10;;;6.70;99.90;;;;;;5053599;28;20216;-83
2024/02/04 03:30:58;;;;;;;7.57;2.10;;;6.60;99.90;;;;;;5054297;28;20204;-83
2024/02/04 03:33:45;;;;;;;7.37;2.03;;;6.60;99.90;;;;;;5053594;28;20204;-83
2024/02/04 03:36:33;;;;;;;10.77;2.20;;;6.60;99.90;;;;;;5039515;28;20664;-83
2024/02/04 03:39:20;;;;;;;5.87;1.80;;;6.70;99.90;;;;;;5037976;28;20219;-82
2024/02/04 03:42:08;;;;;;;4.50;1.83;;;6.70;99.90;;;;;;5053748;28;20306;-82
2024/02/04 03:44:56;;;;;;;10.10;2.10;;;6.70;99.90;;;;;;5039101;28;20193;-83
2024/02/04 03:47:43;;;;;;;6.43;1.90;;;6.70;99.90;;;;;;5052686;28;20204;-83
2024/02/04 03:50:30;;;;;;;6.30;1.60;;;6.70;99.90;;;;;;5053709;28;20230;-82
2024/02/04 03:53:18;;;;;;;8.07;2.37;;;6.70;99.90;;;;;;5053606;28;20656;-83
2024/02/04 03:56:06;;;;;;;8.97;2.10;;;6.70;99.90;;;;;;5039033;28;20656;-83
2024/02/04 03:58:53;;;;;;;10.73;2.23;;;6.60;99.90;;;;;;5053627;28;20321;-83
2024/02/04 04:01:47;;;;;;;7.30;2.20;;;6.70;99.90;;;;;;5037915;28;20487;-83
2024/02/04 04:04:34;;;;;;;8.37;2.17;;;6.70;99.90;;;;;;5052662;28;20645;-83
2024/02/04 04:07:22;;;;;;;5.87;1.77;;;6.60;99.90;;;;;;5052740;28;20203;-83
2024/02/04 04:10:09;;;;;;;7.40;2.10;;;6.60;99.90;;;;;;5052992;28;20666;-83
2024/02/04 04:12:56;;;;;;;4.50;1.57;;;6.60;99.90;;;;;;5052687;28;20287;-83
2024/02/04 04:15:44;;;;;;;7.93;1.70;;;6.60;99.90;;;;;;5052609;28;20201;-83
2024/02/04 04:18:31;;;;;;;5.13;1.60;;;6.60;99.90;;;;;;5038403;28;20208;-83
2024/02/04 04:21:19;;;;;;;7.03;1.70;;;6.60;99.90;;;;;;5037096;28;20217;-83
2024/02/04 04:24:07;;;;;;;8.63;1.80;;;6.60;99.90;;;;;;5051825;28;20199;-83
2024/02/04 04:26:54;;;;;;;8.77;1.77;;;6.60;99.90;;;;;;5052973;28;20245;-82
2024/02/04 04:29:41;;;;;;;9.63;1.63;;;6.60;99.90;;;;;;5052546;28;20275;-83
2024/02/04 04:32:29;;;;;;;6.53;1.90;;;6.60;99.90;;;;;;5038404;28;20202;-83
2024/02/04 04:35:16;;;;;;;6.60;1.87;;;6.50;99.90;;;;;;5053007;28;20568;-83
2024/02/04 04:38:03;;;;;;;6.93;1.67;;;6.60;99.90;;;;;;5045506;28;20789;-82
2024/02/04 04:40:51;;;;;;;4.27;1.30;;;6.40;99.90;;;;;;5052324;28;20695;-82
2024/02/04 04:43:38;;;;;;;5.47;1.37;;;6.30;99.90;;;;;;5037534;28;20606;-82
2024/02/04 04:46:25;;;;;;;7.30;1.50;;;6.10;99.90;;;;;;5052260;28;20233;-82
2024/02/04 04:49:12;;;;;;;4.33;1.57;;;6.00;99.90;;;;;;5051716;28;20198;-83
2024/02/04 04:52:00;;;;;;;5.17;1.40;;;6.00;99.90;;;;;;5051221;28;20276;-83
2024/02/04 04:54:48;;;;;;;6.23;1.73;;;5.90;99.90;;;;;;5038043;28;20672;-83
2024/02/04 04:57:35;;;;;;;9.70;1.80;;;5.80;99.90;;;;;;5051634;28;20309;-83
2024/02/04 05:00:23;;;;;;;4.47;1.43;;;5.80;99.90;;;;;;5037300;28;20223;-83
2024/02/04 05:03:10;;;;;;;4.83;1.70;;;5.70;99.90;;;;;;5052401;28;20220;-83
2024/02/04 05:05:57;;;;;;;7.77;2.00;;;5.70;99.90;;;;;;5051483;28;20230;-83
2024/02/04 05:08:45;;;;;;;4.90;1.57;;;5.70;99.90;;;;;;5051898;28;20198;-83
2024/02/04 05:11:32;;;;;;;7.93;1.80;;;5.80;99.90;;;;;;5052552;28;20633;-83
2024/02/04 05:14:20;;;;;;;6.63;1.80;;;5.70;99.90;;;;;;5050790;28;20194;-83
2024/02/04 05:17:07;;;;;;;5.40;1.50;;;5.70;99.90;;;;;;5052664;28;20196;-83
2024/02/04 05:19:54;;;;;;;5.43;1.80;;;5.70;99.90;;;;;;5052471;28;20265;-83
2024/02/04 05:22:42;;;;;;;7.07;1.90;;;5.70;99.90;;;;;;5037276;28;20288;-84
2024/02/04 05:25:30;;;;;;;8.00;2.00;;;5.60;99.90;;;;;;5052684;28;20198;-83
2024/02/04 05:28:17;;;;;;;10.57;1.87;;;5.70;99.90;;;;;;5051340;28;20221;-83
2024/02/04 05:31:05;;;;;;;5.00;1.80;;;5.80;99.90;;;;;;5054567;28;20202;-83
2024/02/04 05:33:53;;;;;;;7.07;1.87;;;5.80;99.90;;;;;;5055038;28;20207;-83
2024/02/04 05:36:41;;;;;;;8.17;2.90;;;5.80;99.90;;;;;;5055822;28;20283;-83
2024/02/04 05:39:29;;;;;;;6.37;1.80;;;5.80;99.90;;;;;;5054741;28;20199;-83
2024/02/04 05:42:17;;;;;;;13.70;2.27;;;5.70;99.90;;;;;;5054937;28;20560;-83
2024/02/04 05:45:05;;;;;;;8.80;2.10;;;5.60;99.90;;;;;;5056092;28;20219;-83
2024/02/04 05:47:53;;;;;;;4.07;1.70;;;5.60;99.90;;;;;;5040639;28;20199;-82
2024/02/04 05:50:40;;;;;;;5.90;2.03;;;5.50;99.90;;;;;;5054774;28;20195;-83
2024/02/04 05:53:28;;;;;;;6.10;1.90;;;5.50;99.90;;;;;;5054103;28;20213;-83
2024/02/04 05:56:15;;;;;;;5.00;1.80;;;5.50;99.90;;;;;;5054847;28;20232;-83
2024/02/04 05:59:03;;;;;;;7.07;1.70;;;5.50;99.90;;;;;;5040597;28;20223;-83
2024/02/04 06:01:50;;;;;;;8.70;2.00;;;5.50;99.90;;;;;;5052980;28;20700;-83
2024/02/04 06:04:39;;;;;;;6.13;2.07;;;5.50;99.90;;;;;;5054765;28;20201;-83
2024/02/04 06:07:27;;;;;;;9.10;2.30;;;5.40;99.90;;;;;;5055565;28;20183;-83
2024/02/04 06:10:15;;;;;;;10.50;1.93;;;5.50;99.90;;;;;;5041112;28;20205;-83
2024/02/04 06:13:02;;;;;;;6.10;1.80;;;5.50;99.90;;;;;;5053120;28;20220;-83
2024/02/04 06:15:50;;;;;;;4.93;1.77;;;5.40;99.90;;;;;;5054349;28;20274;-83
2024/02/04 06:18:41;;;;;;;9.57;1.90;;;5.50;99.90;;;;;;5055249;28;20248;-83
2024/02/04 06:21:28;;;;;;;6.13;1.73;;;5.40;99.90;;;;;;5039403;28;20235;-83
2024/02/04 06:24:16;;;;;;;8.20;2.10;;;5.40;99.90;;;;;;5040887;28;20201;-83
2024/02/04 06:27:03;;;;;;;6.03;1.60;;;5.30;99.90;;;;;;5055179;28;20210;-83
2024/02/04 06:29:51;;;;;;;8.87;2.17;;;5.30;99.90;;;;;;5054221;28;20202;-82
2024/02/04 06:32:38;;;;;;;6.60;2.13;;;5.30;99.90;;;;;;5053851;28;20195;-83
2024/02/04 06:35:25;;;;;;;7.67;2.43;;;5.30;99.90;;;;;;5054354;28;20212;-82
2024/02/04 06:38:13;;;;;;;10.53;1.90;;;5.20;99.90;;;;;;5054038;28;20274;-83
2024/02/04 06:41:00;;;;;;;10.10;2.30;;;5.20;99.90;;;;;;5054190;28;20581;-83
2024/02/04 06:43:48;;;;;;;11.70;2.00;;;5.20;99.90;;;;;;5053953;28;20202;-81
2024/02/04 06:46:35;;;;;;;9.07;2.20;;;5.20;99.90;;;;;;5038925;28;20233;-82
2024/02/04 06:49:22;;;;;;;4.40;1.87;;;5.20;99.90;;;;;;5053746;28;20199;-82
2024/02/04 06:52:10;;;;;;;9.40;2.00;;;5.20;99.90;;;;;;5054265;28;20203;-83
2024/02/04 06:54:57;;;;;;;6.37;2.10;;;5.10;99.90;;;;;;5053905;28;20196;-82
2024/02/04 06:57:45;;;;;;;10.20;2.10;;;5.20;99.90;;;;;;5054066;28;20214;-82
2024/02/04 07:00:32;;;;;;;7.17;2.13;;;5.10;99.90;;;;;;5040586;28;20210;-82
2024/02/04 07:03:20;;;;;;;8.53;2.00;;;5.20;99.90;;;;;;5054826;28;20285;-82
2024/02/04 07:06:07;;;;;;;8.30;2.00;;;5.20;99.90;;;;;;5054305;28;20257;-83
2024/02/04 07:08:55;;;;;;;10.20;2.07;;;5.20;99.90;;;;;;5039290;28;20217;-82
2024/02/04 07:11:42;;;;;;;9.90;2.17;;;5.30;99.90;;;;;;5053923;28;20305;-81
2024/02/04 07:14:30;;;;;;;14.77;2.20;;;5.20;99.90;;;;;;5039548;28;20203;-82
2024/02/04 07:17:17;;;;;;;9.00;2.10;;;5.20;99.90;;;;;;5053052;28;20191;-82
2024/02/04 07:20:05;;;;;;;9.73;1.97;;;5.30;99.90;;;;;;5039915;28;20589;-81
2024/02/04 07:22:53;;;;;;;8.47;2.00;;;5.40;99.90;;;;;;5054179;28;20249;-81
2024/02/04 07:25:40;;;;;;;8.30;1.80;;;5.40;99.90;;;;;;5054073;28;20198;-82
2024/02/04 07:28:27;;;;;;;6.00;1.90;;;5.40;99.90;;;;;;5054008;28;20244;-82
2024/02/04 07:31:15;;;;;;;6.43;1.93;;;5.40;99.90;;;;;;5039005;28;20226;-82
2024/02/04 07:34:02;;;;;;;8.30;1.80;;;5.40;99.90;;;;;;5052890;28;20590;-82
2024/02/04 07:36:52;;;;;;;8.53;1.73;;;5.40;99.90;;;;;;5044804;28;20204;-82
2024/02/04 07:39:39;;;;;;;9.97;1.77;;;5.40;99.90;;;;;;5038953;28;20230;-83
2024/02/04 07:42:27;;;;;;;6.13;2.03;;;5.50;99.90;;;;;;5053009;28;20226;-83
2024/02/04 07:45:15;;;;;;;11.30;2.53;;;5.50;99.90;;;;;;5038329;28;20779;-84
2024/02/04 07:48:02;;;;;;;11.07;1.80;;;5.40;99.90;;;;;;5052583;28;20265;-83
2024/02/04 07:50:50;;;;;;;10.20;1.97;;;5.50;99.90;;;;;;5045264;28;20328;-85
2024/02/04 07:53:39;;;;;;;8.70;2.03;;;5.50;99.90;;;;;;5051995;28;20196;-85
2024/02/04 07:56:26;;;;;;;7.17;2.10;;;5.50;99.90;;;;;;5038136;28;20660;-85
2024/02/04 07:59:13;;;;;;;10.33;2.20;;;5.60;99.90;;;;;;5038920;28;20508;-85
2024/02/04 08:02:01;;;;;;;10.03;2.13;;;5.60;99.90;;;;;;5052817;28;20336;-84
2024/02/04 08:04:48;;;;;;;10.93;2.30;;;5.60;99.90;;;;;;5037931;28;20189;-85
2024/02/04 08:07:36;;;;;;;10.53;2.43;;;5.60;99.90;;;;;;5037903;28;20194;-83
2024/02/04 08:10:23;;;;;;;9.17;2.30;;;5.70;99.90;;;;;;5039269;28;20195;-84
2024/02/04 08:13:11;;;;;;;6.97;1.90;;;5.70;99.90;;;;;;5052976;28;20219;-84
2024/02/04 08:15:59;;;;;;;10.80;2.07;;;5.70;99.90;;;;;;5052814;28;20198;-84
2024/02/04 08:18:46;;;;;;;7.33;1.97;;;5.80;99.90;;;;;;5052656;28;20199;-84
2024/02/04 08:21:33;;;;;;;12.97;2.10;;;5.80;99.90;;;;;;5052449;28;20335;-85
2024/02/04 08:24:21;;;;;;;10.40;2.23;;;5.70;99.90;;;;;;5053101;28;20191;-84
2024/02/04 08:27:08;;;;;;;9.83;2.10;;;5.70;99.90;;;;;;5051716;28;20214;-84
2024/02/04 08:29:55;;;;;;;7.57;2.00;;;5.70;99.90;;;;;;5052255;28;20555;-83
2024/02/04 08:32:44;;;;;;;7.00;2.17;;;5.70;99.90;;;;;;5051631;28;20332;-84
2024/02/04 08:35:32;;;;;;;6.37;2.33;;;5.70;99.90;;;;;;5052060;28;20636;-84
2024/02/04 08:38:19;;;;;;;8.60;2.17;;;5.70;99.90;;;;;;5051612;28;20345;-82
2024/02/04 08:41:07;;;;;;;10.97;2.10;;;5.70;99.90;;;;;;5036676;28;20234;-83
2024/02/04 08:43:54;;;;;;;8.13;2.03;;;5.70;99.90;;;;;;5037959;28;20568;-84
2024/02/04 08:46:41;;;;;;;8.63;2.33;;;5.80;99.90;;;;;;5052610;28;20228;-83
2024/02/04 08:49:30;;;;;;;9.10;2.33;;;5.80;99.90;;;;;;5052649;28;20200;-87
2024/02/04 08:52:17;;;;;;;12.27;2.27;;;5.80;99.90;;;;;;5051496;28;20191;-82
2024/02/04 08:55:05;;;;;;;7.20;2.27;;;5.80;99.90;;;;;;5053442;28;20542;-83
2024/02/04 08:57:53;;;;;;;8.77;2.27;;;5.70;99.90;;;;;;5050967;28;20580;-83
2024/02/04 09:00:40;;;;;;;8.70;2.33;;;5.80;99.90;;;;;;5036393;28;20250;-83
2024/02/04 09:03:29;;;;;;;10.07;2.20;;;5.70;99.90;;;;;;5039284;28;20203;-83
2024/02/04 09:06:17;;;;;;;8.67;1.97;;;5.70;99.90;;;;;;5041638;28;20264;-84
2024/02/04 09:09:05;;;;;;;10.90;2.33;;;5.80;99.90;;;;;;5054688;28;20204;-84
2024/02/04 09:11:52;;;;;;;8.77;2.23;;;5.80;99.90;;;;;;5056719;28;20592;-83
2024/02/04 09:14:39;;;;;;;8.37;2.17;;;5.80;99.90;;;;;;5042138;28;20195;-83
2024/02/04 09:17:27;;;;;;;11.17;2.50;;;5.80;99.90;;;;;;5056875;28;20202;-83
2024/02/04 09:20:15;;;;;;;7.30;2.20;;;5.70;99.90;;;;;;5056521;28;20191;-84
2024/02/04 09:23:04;;;;;;;7.80;2.00;;;5.80;99.90;;;;;;5040698;28;20717;-83
2024/02/04 09:25:52;;;;;;;9.63;2.47;;;5.80;99.90;;;;;;5055279;28;20208;-82
2024/02/04 09:28:39;;;;;;;9.67;2.33;;;5.80;99.90;;;;;;5040994;28;20541;-82
2024/02/04 09:31:28;;;;;;;10.53;2.00;;;5.80;99.90;;;;;;5054728;28;20321;-83
2024/02/04 09:34:16;;;;;;;7.23;2.20;;;5.90;99.90;;;;;;5054462;28;20197;-83
2024/02/04 09:37:08;;;;;;;6.83;2.00;;;5.90;99.90;;;;;;5056865;28;20191;-84
2024/02/04 09:39:55;;;;;;;6.53;2.27;;;6.00;99.90;;;;;;5055790;28;20567;-83
2024/02/04 09:42:42;;;;;;;7.73;1.87;;;5.90;99.90;;;;;;5055103;28;20729;-84
2024/02/04 09:45:30;;;;;;;5.73;2.20;;;5.90;99.90;;;;;;5055594;28;20194;-83
2024/02/04 09:48:20;;;;;;;12.70;2.67;;;5.90;99.90;;;;;;5040987;28;20198;-85
2024/02/04 09:51:08;;;;;;;12.20;2.37;;;5.90;99.90;;;;;;5055272;28;20206;-84
2024/02/04 09:54:00;;;;;;;7.27;1.90;;;5.90;99.90;;;;;;5054544;28;20204;-83
2024/02/04 09:56:50;;;;;;;12.43;2.33;;;6.00;99.90;;;;;;5055113;28;20215;-84
2024/02/04 09:59:38;;;;;;;13.13;2.57;;;6.00;99.90;;;;;;5055218;28;20203;-83
2024/02/04 10:02:26;;;;;;;9.97;2.40;;;6.00;99.90;;;;;;5053835;28;20260;-83
2024/02/04 10:05:17;;;;;;;10.77;2.30;;;6.00;99.90;;;;;;5053316;28;20313;-82
2024/02/04 10:08:05;;;;;;;7.50;2.27;;;6.00;99.90;;;;;;5040347;28;20191;-83
2024/02/04 10:10:54;;;;;;;7.20;2.07;;;6.00;99.90;;;;;;5054825;28;20220;-82
2024/02/04 10:13:49;;;;;;;8.73;2.30;;;6.00;99.90;;;;;;5040773;28;20267;-81
2024/02/04 10:16:37;;;;;;;10.77;2.60;;;6.00;99.90;;;;;;5054411;28;20218;-82
2024/02/04 10:19:28;;;;;;;6.70;2.20;;;6.00;99.90;;;;;;5039678;28;20782;-82
2024/02/04 10:22:17;;;;;;;9.30;2.30;;;6.00;99.90;;;;;;5040241;28;20211;-82
2024/02/04 10:25:15;;;;;;;6.87;2.43;;;6.10;99.90;;;;;;5054182;28;20314;-81
2024/02/04 10:28:02;;;;;;;15.03;2.13;;;6.10;99.90;;;;;;5038766;28;20589;-83
2024/02/04 10:30:49;;;;;;;7.27;2.40;;;6.10;99.90;;;;;;5054831;28;20684;-82
2024/02/04 10:33:37;;;;;;;8.37;3.10;;;6.00;99.90;;;;;;5053323;28;20199;-83
2024/02/04 10:36:25;;;;;;;11.23;2.50;;;6.00;99.90;;;;;;5054325;28;20291;-83
2024/02/04 10:39:13;;;;;;;8.83;2.57;;;6.00;99.90;;;;;;5053667;28;20195;-84
2024/02/04 10:42:05;;;;;;;12.00;2.80;;;6.10;99.90;;;;;;5039412;28;20719;-84
2024/02/04 10:44:54;;;;;;;15.80;2.77;;;6.10;99.90;;;;;;5040080;28;20203;-84
2024/02/04 10:47:44;;;;;;;8.90;2.47;;;6.10;99.90;;;;;;5040115;28;20199;-84
2024/02/04 10:50:34;;;;;;;10.13;2.13;;;6.10;99.90;;;;;;5054675;28;20199;-84
2024/02/04 10:53:22;;;;;;;10.20;2.20;;;6.00;99.90;;;;;;5054619;28;20210;-84
2024/02/04 10:56:16;;;;;;;12.93;2.70;;;6.20;99.90;;;;;;5039503;28;20278;-84
2024/02/04 10:59:04;;;;;;;7.97;2.10;;;6.20;99.90;;;;;;5053771;28;20192;-84
2024/02/04 11:01:52;;;;;;;6.87;2.30;;;6.20;99.90;;;;;;5053877;28;20222;-84
2024/02/04 11:04:41;;;;;;;12.07;2.50;;;6.20;99.90;;;;;;5040490;28;20232;-84
2024/02/04 11:07:32;;;;;;;9.10;2.23;;;6.20;99.90;;;;;;5039773;28;20653;-85
2024/02/04 11:10:21;;;;;;;9.30;2.30;;;6.20;99.90;;;;;;5039807;28;20191;-84
2024/02/04 11:13:10;;;;;;;8.47;2.10;;;6.10;99.90;;;;;;5052288;28;20211;-83
2024/02/04 11:16:00;;;;;;;9.23;2.50;;;6.10;99.90;;;;;;5039301;28;20204;-84
2024/02/04 11:19:11;;;;;;;10.13;2.70;;;6.10;99.90;;;;;;5053793;28;20195;-83
2024/02/04 11:22:29;;;;;;;8.30;2.40;;;6.00;99.90;;;;;;5053012;28;20239;-83
2024/02/04 11:25:38;;;;;;;9.93;2.50;;;5.90;99.90;;;;;;5052495;28;20270;-84
2024/02/04 11:28:26;;;;;;;8.73;2.10;;;5.90;99.90;;;;;;5038993;28;20249;-84
2024/02/04 11:31:23;;;;;;;8.30;2.53;;;5.90;99.90;;;;;;5052382;28;20197;-84
2024/02/04 11:34:11;;;;;;;10.83;2.40;;;5.90;99.90;;;;;;5040018;28;20676;-84
2024/02/04 11:36:59;;;;;;;10.17;2.80;;;5.90;99.90;;;;;;5052732;28;20203;-84
2024/02/04 11:39:51;;;;;;;10.13;2.13;;;5.80;99.90;;;;;;5053263;28;20576;-83
2024/02/04 11:42:39;;;;;;;12.47;2.87;;;5.80;99.90;;;;;;5039273;28;20739;-83
2024/02/04 11:45:27;;;;;;;8.70;2.63;;;5.80;99.90;;;;;;5052609;28;20271;-81
2024/02/04 11:48:16;;;;;;;8.80;2.50;;;5.70;99.90;;;;;;5052774;28;20325;-81
2024/02/04 11:51:05;;;;;;;9.70;2.90;;;5.70;99.90;;;;;;5054043;28;20226;-82
2024/02/04 11:53:55;;;;;;;11.40;2.53;;;5.60;99.90;;;;;;5039455;28;20201;-80
2024/02/04 11:56:44;;;;;;;9.60;2.93;;;5.60;99.90;;;;;;5054277;28;20218;-81
2024/02/04 11:59:31;;;;;;;11.50;2.87;;;5.60;99.90;;;;;;5052951;28;20647;-81
2024/02/04 12:02:20;;;;;;;11.27;3.13;;;5.60;99.90;;;;;;5052045;28;20230;-83
2024/02/04 12:05:08;;;;;;;7.50;2.60;;;5.60;99.90;;;;;;5052437;28;20364;-83
2024/02/04 12:07:56;;;;;;;8.63;2.70;;;5.70;99.90;;;;;;5051361;28;20202;-83
2024/02/04 12:10:44;;;;;;;12.33;2.80;;;5.70;99.90;;;;;;5053431;28;20248;-83
2024/02/04 12:13:34;;;;;;;8.70;2.90;;;5.70;99.90;;;;;;5051406;28;20196;-83
2024/02/04 12:16:21;;;;;;;10.17;2.80;;;5.80;99.90;;;;;;5051933;28;20199;-83
2024/02/04 12:19:09;;;;;;;9.33;3.03;;;5.80;99.90;;;;;;5039532;28;20196;-83
2024/02/04 12:21:57;;;;;;;6.93;2.70;;;5.80;99.90;;;;;;5041276;28;20663;-83
2024/02/04 12:24:45;;;;;;;10.77;2.70;;;5.90;99.90;;;;;;5057655;28;20200;-83
2024/02/04 12:27:33;;;;;;;9.70;3.60;;;5.90;99.90;;;;;;5044755;28;20213;-84
2024/02/04 12:30:21;;;;;;;13.67;2.97;;;6.00;99.90;;;;;;5054300;28;20200;-83
2024/02/04 12:33:08;;;;;;;9.43;2.57;;;6.00;99.90;;;;;;5054165;28;20191;-84
2024/02/04 12:35:59;;;;;;;9.53;2.93;;;6.10;99.90;;;;;;5047456;28;20193;-82
2024/02/04 12:39:00;;;;;;;8.67;2.70;;;6.10;99.90;;;;;;5052551;28;20560;-82
2024/02/04 12:41:51;;;;;;;8.83;2.83;;;6.10;99.90;;;;;;5052815;28;20227;-82
2024/02/04 12:44:39;;;;;;;9.70;3.00;;;6.10;99.90;;;;;;5052499;28;20542;-84
2024/02/04 12:47:28;;;;;;;10.67;3.20;;;6.10;99.90;;;;;;5051543;28;20337;-84
2024/02/04 12:50:16;;;;;;;10.30;2.87;;;6.10;99.90;;;;;;5037865;28;20679;-83
2024/02/04 12:53:11;;;;;;;10.23;2.90;;;6.10;99.90;;;;;;5050322;28;20196;-83
2024/02/04 12:55:59;;;;;;;8.30;3.33;;;6.20;99.90;;;;;;5037260;28;20195;-82
2024/02/04 12:58:47;;;;;;;7.37;3.00;;;6.20;99.90;;;;;;5037184;28;20329;-84
2024/02/04 13:01:35;;;;;;;8.87;2.80;;;6.20;99.90;;;;;;5052606;28;20855;-85
2024/02/04 13:04:23;;;;;;;9.30;2.80;;;6.20;99.90;;;;;;5050887;28;20648;-83
2024/02/04 13:07:16;;;;;;;13.17;3.00;;;6.20;99.90;;;;;;5050793;28;20216;-83
2024/02/04 13:10:04;;;;;;;8.43;3.70;;;6.20;99.90;;;;;;5052904;28;20187;-83
2024/02/04 13:13:02;;;;;;;7.83;2.53;;;6.10;99.90;;;;;;5038212;28;20227;-82
2024/02/04 13:15:50;;;;;;;9.13;2.70;;;6.10;99.90;;;;;;5052027;28;20606;-82
2024/02/04 13:18:37;;;;;;;8.87;3.03;;;6.00;99.90;;;;;;5051493;28;20280;-81
2024/02/04 13:21:25;;;;;;;10.63;2.80;;;5.90;99.90;;;;;;5051805;28;20227;-80
2024/02/04 13:24:12;;;;;;;11.47;3.00;;;5.90;99.90;;;;;;5038451;28;20201;-82
2024/02/04 13:27:00;;;;;;;9.10;3.30;;;5.80;99.90;;;;;;5051588;28;20252;-83
2024/02/04 13:29:49;;;;;;;9.57;3.20;;;5.70;99.90;;;;;;5038454;28;20201;-81
2024/02/04 13:32:37;;;;;;;10.33;3.50;;;5.60;99.90;;;;;;5050537;28;20219;-84
2024/02/04 13:35:25;;;;;;;8.23;3.30;;;5.50;99.90;;;;;;5050928;28;20198;-82
2024/02/04 13:38:13;;;;;;;9.63;3.10;;;5.50;99.90;;;;;;5050988;28;20191;-84
2024/02/04 13:41:01;;;;;;;9.83;3.10;;;5.50;99.90;;;;;;5051071;28;20223;-83
2024/02/04 13:43:49;;;;;;;7.23;2.97;;;5.50;99.90;;;;;;5051077;28;20210;-82
2024/02/04 13:46:39;;;;;;;8.47;3.10;;;5.50;99.90;;;;;;5051562;28;20274;-82
2024/02/04 13:49:26;;;;;;;8.77;3.10;;;5.50;99.90;;;;;;5050699;28;20521;-82
2024/02/04 13:52:14;;;;;;;9.87;3.00;;;5.50;99.90;;;;;;5053993;28;20195;-82
2024/02/04 13:55:05;;;;;;;9.33;3.17;;;5.50;99.90;;;;;;5053449;28;20205;-82
2024/02/04 13:57:52;;;;;;;6.77;3.20;;;5.50;99.90;;;;;;5055684;28;20255;-83
2024/02/04 14:00:40;;;;;;;8.77;2.97;;;5.50;99.90;;;;;;5055099;28;20187;-84
2024/02/04 14:03:27;;;;;;;8.47;3.07;;;5.50;99.90;;;;;;5054008;28;20215;-82
2024/02/04 14:06:15;;;;;;;9.13;2.70;;;5.50;99.90;;;;;;5041577;28;20561;-82
2024/02/04 14:09:03;;;;;;;7.30;2.70;;;5.50;99.90;;;;;;5055116;28;20197;-83
2024/02/04 14:11:51;;;;;;;6.47;2.80;;;5.60;99.90;;;;;;5054409;28;20325;-83
2024/02/04 14:14:39;;;;;;;7.20;2.80;;;5.60;99.90;;;;;;5055551;28;20555;-82
2024/02/04 14:17:26;;;;;;;8.83;2.90;;;5.60;99.90;;;;;;5054875;28;20570;-83
2024/02/04 14:20:14;;;;;;;8.20;3.07;;;5.70;99.90;;;;;;5053825;28;20204;-83
2024/02/04 14:23:01;;;;;;;7.33;2.93;;;5.70;99.90;;;;;;5054721;28;20303;-87
2024/02/04 14:25:49;;;;;;;6.43;2.30;;;5.80;99.90;;;;;;5041863;28;20191;-87
2024/02/04 14:28:41;;;;;;;7.97;2.90;;;5.90;99.90;;;;;;5054355;28;20194;-87
2024/02/04 14:31:28;;;;;;;8.60;2.73;;;5.90;99.90;;;;;;5055251;28;20195;-87
2024/02/04 14:34:16;;;;;;;8.70;2.33;;;5.90;99.90;;;;;;5045453;28;20198;-86
2024/02/04 14:37:04;;;;;;;10.33;2.50;;;6.00;99.90;;;;;;5058170;28;20206;-86
2024/02/04 14:39:52;;;;;;;9.77;2.60;;;6.00;99.90;;;;;;5056696;28;20242;-85
2024/02/04 14:42:40;;;;;;;7.37;2.40;;;6.00;99.90;;;;;;5055079;28;20692;-85
2024/02/04 14:45:29;;;;;;;8.30;2.57;;;6.10;99.90;;;;;;5039944;28;20202;-87
2024/02/04 14:48:17;;;;;;;7.87;2.40;;;6.20;99.90;;;;;;5040680;28;20195;-87